Time;durP1;ratioP1;P1;durP2;ratioP2;P2;SDS_P1;SDS_P2;PMS_P1;PMS_P2;Temp;Humidity;BMP_temperature;BMP_pressure;BME280_temperature;BME280_humidity;BME280_pressure;Samples;Min_cycle;Max_cycle;Signal;HPM_P1;HPM_P2
2021/11/29 00:01:54;;;;;;;395.00;378.63;;;1.30;99.90;;;;;;4358827;32;20187;-60
2021/11/29 00:04:21;;;;;;;396.73;380.30;;;1.30;99.90;;;;;;4357477;33;20288;-60
2021/11/29 00:06:48;;;;;;;411.37;394.17;;;1.30;99.90;;;;;;4361275;32;20171;-61
2021/11/29 00:09:18;;;;;;;397.53;380.33;;;1.30;99.90;;;;;;4360786;32;20529;-60
2021/11/29 00:11:46;;;;;;;395.03;378.47;;;1.20;99.90;;;;;;4356400;32;20220;-59
2021/11/29 00:14:13;;;;;;;383.80;367.60;;;1.20;99.90;;;;;;4359745;32;20228;-59
2021/11/29 00:16:40;;;;;;;406.13;388.97;;;1.20;99.90;;;;;;4360984;32;20149;-59
2021/11/29 00:19:07;;;;;;;404.40;387.50;;;1.20;99.90;;;;;;4359493;32;20208;-59
2021/11/29 00:21:35;;;;;;;398.67;381.73;;;1.20;99.90;;;;;;4360853;32;20442;-60
2021/11/29 00:24:02;;;;;;;382.80;366.77;;;1.20;99.90;;;;;;4359969;32;20177;-61
2021/11/29 00:26:29;;;;;;;396.30;379.60;;;1.10;99.90;;;;;;4359571;32;20164;-60
2021/11/29 00:29:00;;;;;;;405.07;388.20;;;1.20;99.90;;;;;;4358925;33;20156;-60
2021/11/29 00:31:28;;;;;;;387.83;371.70;;;1.20;99.90;;;;;;4358944;32;20149;-60
2021/11/29 00:33:54;;;;;;;376.03;360.67;;;1.10;99.90;;;;;;4360860;32;20449;-60
2021/11/29 00:36:21;;;;;;;389.50;373.40;;;1.10;99.90;;;;;;4362720;32;20652;-60
2021/11/29 00:38:48;;;;;;;403.50;386.47;;;1.10;99.90;;;;;;4360207;32;20228;-60
2021/11/29 00:41:15;;;;;;;403.20;386.50;;;1.10;99.90;;;;;;4359705;32;20161;-60
2021/11/29 00:43:42;;;;;;;389.53;373.33;;;1.10;99.90;;;;;;4360726;32;20309;-61
2021/11/29 00:46:10;;;;;;;400.40;383.83;;;1.10;99.90;;;;;;4358623;33;20161;-60
2021/11/29 00:48:37;;;;;;;402.03;385.17;;;1.10;99.90;;;;;;4360166;32;20540;-60
2021/11/29 00:51:04;;;;;;;411.73;394.33;;;1.10;99.90;;;;;;4356734;32;20228;-61
2021/11/29 00:53:31;;;;;;;417.83;399.67;;;1.20;99.90;;;;;;4358518;33;20554;-61
2021/11/29 00:55:58;;;;;;;421.73;403.93;;;1.20;99.90;;;;;;4361070;32;20619;-60
2021/11/29 00:58:25;;;;;;;420.83;403.17;;;1.30;99.90;;;;;;4354882;32;20187;-60
2021/11/29 01:00:52;;;;;;;400.93;384.10;;;1.30;99.90;;;;;;4360776;32;20227;-60
2021/11/29 01:03:20;;;;;;;435.60;416.97;;;1.40;99.90;;;;;;4359813;32;20154;-61
2021/11/29 01:05:47;;;;;;;415.97;398.37;;;1.40;99.90;;;;;;4358619;33;20148;-61
2021/11/29 01:08:14;;;;;;;424.83;406.93;;;1.40;99.90;;;;;;4358520;32;20148;-61
2021/11/29 01:10:41;;;;;;;431.17;412.97;;;1.40;99.90;;;;;;4358265;33;20168;-60
2021/11/29 01:13:08;;;;;;;438.63;419.73;;;1.50;99.90;;;;;;4358495;32;20179;-61
2021/11/29 01:15:38;;;;;;;430.97;412.37;;;1.50;99.90;;;;;;4359503;32;20168;-60
2021/11/29 01:18:10;;;;;;;421.20;403.13;;;1.50;99.90;;;;;;4359394;32;20144;-60
2021/11/29 01:20:44;;;;;;;422.07;403.83;;;1.50;99.90;;;;;;4358049;32;20199;-59
2021/11/29 01:23:11;;;;;;;424.73;406.47;;;1.50;99.90;;;;;;4357548;32;20148;-61
2021/11/29 01:25:39;;;;;;;422.90;405.17;;;1.40;99.90;;;;;;4358493;32;20230;-60
2021/11/29 01:28:05;;;;;;;421.07;403.33;;;1.40;99.90;;;;;;4360606;32;20164;-62
2021/11/29 01:30:33;;;;;;;428.33;410.03;;;1.40;99.90;;;;;;4357235;33;20152;-61
2021/11/29 01:33:00;;;;;;;423.30;405.33;;;1.50;99.90;;;;;;4358750;32;20568;-60
2021/11/29 01:35:27;;;;;;;416.13;398.57;;;1.50;99.90;;;;;;4355936;32;20172;-61
2021/11/29 01:37:56;;;;;;;420.73;402.87;;;1.60;99.90;;;;;;4359689;32;20149;-60
2021/11/29 01:40:23;;;;;;;417.57;400.23;;;1.60;99.90;;;;;;4360955;32;20231;-61
2021/11/29 01:42:59;;;;;;;418.30;400.50;;;1.50;99.90;;;;;;4357803;32;20154;-61
2021/11/29 01:45:26;;;;;;;431.93;413.87;;;1.40;99.90;;;;;;4357087;33;20551;-62
2021/11/29 01:47:53;;;;;;;397.93;381.23;;;1.40;99.90;;;;;;4359748;32;20685;-61
2021/11/29 01:50:21;;;;;;;395.80;379.13;;;1.40;99.90;;;;;;4359584;33;20540;-60
2021/11/29 01:52:49;;;;;;;395.57;379.23;;;1.30;99.90;;;;;;4356946;33;20171;-61
2021/11/29 01:55:21;;;;;;;379.20;363.50;;;1.30;99.90;;;;;;4359835;33;20195;-60
2021/11/29 01:57:48;;;;;;;384.67;369.00;;;1.30;99.90;;;;;;4359060;33;20157;-61
2021/11/29 02:00:19;;;;;;;379.80;364.10;;;1.20;99.90;;;;;;4358358;33;20275;-61
2021/11/29 02:02:49;;;;;;;393.57;377.23;;;1.20;99.90;;;;;;4357963;32;20628;-61
2021/11/29 02:05:16;;;;;;;390.77;374.60;;;1.20;99.90;;;;;;4358260;33;20141;-61
2021/11/29 02:07:43;;;;;;;392.33;375.83;;;1.20;99.90;;;;;;4358078;33;20179;-60
2021/11/29 02:10:10;;;;;;;389.30;373.33;;;1.20;99.90;;;;;;4359590;32;20160;-60
2021/11/29 02:12:38;;;;;;;391.43;375.27;;;1.10;99.90;;;;;;4355896;32;20145;-61
2021/11/29 02:15:06;;;;;;;385.20;369.33;;;1.20;99.90;;;;;;4358586;32;20145;-62
2021/11/29 02:17:33;;;;;;;381.90;366.23;;;1.10;99.90;;;;;;4361659;32;20228;-61
2021/11/29 02:20:01;;;;;;;387.83;371.93;;;1.10;99.90;;;;;;4360623;33;20220;-62
2021/11/29 02:22:30;;;;;;;394.03;377.87;;;1.10;99.90;;;;;;4360335;33;20168;-60
2021/11/29 02:24:57;;;;;;;381.37;365.63;;;1.10;99.90;;;;;;4359295;33;20180;-61
2021/11/29 02:27:24;;;;;;;393.57;377.33;;;1.10;99.90;;;;;;4359558;33;20212;-61
2021/11/29 02:29:52;;;;;;;395.10;378.63;;;1.10;99.90;;;;;;4358362;32;20276;-60
2021/11/29 02:32:19;;;;;;;383.80;368.00;;;1.10;99.90;;;;;;4358875;33;20169;-61
2021/11/29 02:34:46;;;;;;;396.70;380.30;;;1.00;99.90;;;;;;4360837;32;20536;-61
2021/11/29 02:37:13;;;;;;;390.23;374.13;;;1.00;99.90;;;;;;4358335;32;20730;-61
2021/11/29 02:39:42;;;;;;;376.97;361.47;;;1.00;99.90;;;;;;4359282;32;20199;-60
2021/11/29 02:42:12;;;;;;;386.80;370.50;;;1.00;99.90;;;;;;4358077;33;20988;-61
2021/11/29 02:44:40;;;;;;;391.33;374.83;;;1.00;99.90;;;;;;4354949;33;20160;-61
2021/11/29 02:47:07;;;;;;;389.87;373.63;;;1.00;99.90;;;;;;4352601;33;20172;-61
2021/11/29 02:49:34;;;;;;;388.43;372.43;;;1.00;99.90;;;;;;4351666;33;20243;-60
2021/11/29 02:52:04;;;;;;;402.23;385.47;;;1.10;99.90;;;;;;4356613;32;20212;-61
2021/11/29 02:54:33;;;;;;;412.40;394.90;;;1.20;99.90;;;;;;4358894;33;20221;-60
2021/11/29 02:57:03;;;;;;;410.07;392.97;;;1.20;99.90;;;;;;4352694;32;20255;-61
2021/11/29 02:59:33;;;;;;;427.80;409.40;;;1.20;99.90;;;;;;4352062;32;20516;-61
2021/11/29 03:02:02;;;;;;;421.83;404.10;;;1.20;99.90;;;;;;4358009;32;20183;-61
2021/11/29 03:04:31;;;;;;;420.07;402.30;;;1.10;99.90;;;;;;4359846;33;20230;-61
2021/11/29 03:06:58;;;;;;;411.80;394.47;;;1.10;99.90;;;;;;4349730;32;20288;-61
2021/11/29 03:09:26;;;;;;;409.00;391.90;;;1.00;99.90;;;;;;4356372;32;20215;-61
2021/11/29 03:11:54;;;;;;;394.00;377.63;;;1.00;99.90;;;;;;4354089;32;20700;-62
2021/11/29 03:14:22;;;;;;;392.27;375.77;;;1.00;99.90;;;;;;4347274;32;20247;-61
2021/11/29 03:16:49;;;;;;;379.73;363.93;;;1.00;99.90;;;;;;4354556;32;20153;-61
2021/11/29 03:19:16;;;;;;;381.80;365.90;;;1.00;99.90;;;;;;4358609;33;20191;-61
2021/11/29 03:21:43;;;;;;;391.47;375.00;;;1.00;99.90;;;;;;4358680;32;20228;-61
2021/11/29 03:24:10;;;;;;;392.27;375.93;;;1.00;99.90;;;;;;4358066;32;20149;-60
2021/11/29 03:26:40;;;;;;;395.43;378.17;;;0.90;99.90;;;;;;4354715;33;20224;-60
2021/11/29 03:29:09;;;;;;;384.90;368.83;;;1.00;99.90;;;;;;4352472;32;20155;-63
2021/11/29 03:31:39;;;;;;;382.73;366.80;;;0.90;99.90;;;;;;4354225;32;20160;-61
2021/11/29 03:34:09;;;;;;;383.43;367.43;;;0.90;99.90;;;;;;4352275;33;20215;-61
2021/11/29 03:36:38;;;;;;;385.00;368.93;;;0.90;99.90;;;;;;4353385;32;20156;-61
2021/11/29 03:39:09;;;;;;;394.50;377.83;;;0.90;99.90;;;;;;4359854;32;20204;-60
2021/11/29 03:41:40;;;;;;;406.47;389.43;;;1.00;99.90;;;;;;4358247;32;20203;-61
2021/11/29 03:44:07;;;;;;;409.33;392.17;;;1.00;99.90;;;;;;4358606;32;20183;-61
2021/11/29 03:46:34;;;;;;;402.53;385.63;;;1.10;99.90;;;;;;4350177;32;20909;-61
2021/11/29 03:49:05;;;;;;;399.77;382.90;;;1.00;99.90;;;;;;4349844;32;20554;-60
2021/11/29 03:51:32;;;;;;;399.33;382.43;;;1.00;99.90;;;;;;4353724;32;20187;-60
2021/11/29 03:53:59;;;;;;;379.40;363.63;;;1.00;99.90;;;;;;4350679;32;20173;-61
2021/11/29 03:56:25;;;;;;;391.30;374.87;;;0.90;99.90;;;;;;4352521;32;20638;-60
2021/11/29 03:58:52;;;;;;;397.53;380.93;;;1.00;99.90;;;;;;4347727;33;20205;-60
2021/11/29 04:01:19;;;;;;;423.57;405.27;;;1.00;99.90;;;;;;4349384;33;20657;-61
2021/11/29 04:03:46;;;;;;;426.50;408.23;;;1.10;99.90;;;;;;4349581;33;20144;-61
2021/11/29 04:06:15;;;;;;;423.43;405.40;;;1.20;99.90;;;;;;4352629;32;20167;-62
2021/11/29 04:08:41;;;;;;;416.57;398.77;;;1.30;99.90;;;;;;4358235;32;20157;-60
2021/11/29 04:11:08;;;;;;;425.97;407.87;;;1.30;99.90;;;;;;4347226;33;20145;-63
2021/11/29 04:13:35;;;;;;;419.07;401.57;;;1.20;99.90;;;;;;4354955;32;20195;-61
2021/11/29 04:16:03;;;;;;;419.93;402.17;;;1.20;99.90;;;;;;4357124;32;20165;-60
2021/11/29 04:18:30;;;;;;;418.07;400.33;;;1.10;99.90;;;;;;4349057;32;20180;-61
2021/11/29 04:20:58;;;;;;;408.23;391.17;;;1.10;99.90;;;;;;4353233;32;20149;-60
2021/11/29 04:23:26;;;;;;;412.90;395.63;;;1.10;99.90;;;;;;4357821;33;20192;-60
2021/11/29 04:25:55;;;;;;;385.37;369.33;;;1.10;99.90;;;;;;4357874;32;20201;-62
2021/11/29 04:28:23;;;;;;;401.13;384.03;;;1.10;99.90;;;;;;4353747;32;20231;-61
2021/11/29 04:30:50;;;;;;;391.23;374.53;;;1.00;99.90;;;;;;4348521;33;20165;-61
2021/11/29 04:33:17;;;;;;;392.73;376.20;;;1.00;99.90;;;;;;4350154;32;20434;-60
2021/11/29 04:35:44;;;;;;;405.83;388.47;;;1.00;99.90;;;;;;4353913;32;20227;-61
2021/11/29 04:38:11;;;;;;;387.80;371.30;;;1.10;99.90;;;;;;4347349;32;20255;-61
2021/11/29 04:40:39;;;;;;;398.77;382.10;;;1.10;99.90;;;;;;4344278;33;20221;-61
2021/11/29 04:43:06;;;;;;;410.57;392.43;;;1.10;99.90;;;;;;4349844;32;20239;-61
2021/11/29 04:45:34;;;;;;;412.47;394.60;;;1.10;99.90;;;;;;4357787;33;20163;-59
2021/11/29 04:48:01;;;;;;;421.90;403.60;;;1.10;99.90;;;;;;4351118;32;20195;-63
2021/11/29 04:50:28;;;;;;;418.40;400.53;;;1.10;99.90;;;;;;4349678;33;20169;-60
2021/11/29 04:52:55;;;;;;;420.13;401.83;;;1.10;99.90;;;;;;4353179;32;20239;-60
2021/11/29 04:55:22;;;;;;;423.90;405.20;;;1.10;99.90;;;;;;4337056;32;20176;-61
2021/11/29 04:57:50;;;;;;;428.80;410.60;;;1.10;99.90;;;;;;4357065;33;20234;-61
2021/11/29 05:00:19;;;;;;;429.33;411.03;;;1.10;99.90;;;;;;4346392;32;20175;-61
2021/11/29 05:02:46;;;;;;;409.37;391.70;;;1.10;99.90;;;;;;4350049;32;20612;-62
2021/11/29 05:05:14;;;;;;;424.00;405.27;;;1.10;99.90;;;;;;4359644;32;20228;-61
2021/11/29 05:07:40;;;;;;;398.57;381.53;;;1.20;99.90;;;;;;4358651;33;20239;-62
2021/11/29 05:10:08;;;;;;;420.50;402.47;;;1.10;99.90;;;;;;4357527;32;20149;-62
2021/11/29 05:12:35;;;;;;;418.10;400.43;;;1.20;99.90;;;;;;4354055;32;20242;-60
2021/11/29 05:15:07;;;;;;;405.13;387.80;;;1.20;99.90;;;;;;4351314;32;20161;-62
2021/11/29 05:17:34;;;;;;;405.13;387.37;;;1.20;99.90;;;;;;4350547;33;20156;-60
2021/11/29 05:20:00;;;;;;;409.37;391.70;;;1.30;99.90;;;;;;4342885;32;20461;-61
2021/11/29 05:22:27;;;;;;;410.77;392.97;;;1.30;99.90;;;;;;4350961;32;20148;-61
2021/11/29 05:24:54;;;;;;;427.97;408.97;;;1.30;99.90;;;;;;4348101;32;20589;-60
2021/11/29 05:27:21;;;;;;;432.00;413.37;;;1.30;99.90;;;;;;4353910;33;20217;-61
2021/11/29 05:29:50;;;;;;;392.03;375.50;;;1.30;99.90;;;;;;4355999;32;20183;-60
2021/11/29 05:32:18;;;;;;;388.43;372.23;;;1.30;99.90;;;;;;4349198;32;20187;-60
2021/11/29 05:34:45;;;;;;;384.30;368.33;;;1.30;99.90;;;;;;4352181;32;20204;-59
2021/11/29 05:37:15;;;;;;;380.77;364.83;;;1.30;99.90;;;;;;4351552;32;20154;-60
2021/11/29 05:39:42;;;;;;;379.93;364.27;;;1.20;99.90;;;;;;4357601;32;20176;-61
2021/11/29 05:42:09;;;;;;;383.00;366.97;;;1.20;99.90;;;;;;4345757;33;20228;-61
2021/11/29 05:44:38;;;;;;;384.10;367.93;;;1.20;99.90;;;;;;4355748;32;20171;-61
2021/11/29 05:47:05;;;;;;;372.30;356.93;;;1.20;99.90;;;;;;4359277;32;20208;-60
2021/11/29 05:49:34;;;;;;;371.23;355.87;;;1.20;99.90;;;;;;4356938;33;20435;-60
2021/11/29 05:52:04;;;;;;;357.20;342.47;;;1.20;99.90;;;;;;4357329;33;20175;-59
2021/11/29 05:54:31;;;;;;;375.20;359.60;;;1.20;99.90;;;;;;4360378;32;20470;-60
2021/11/29 05:56:58;;;;;;;355.43;340.37;;;1.10;99.90;;;;;;4356761;33;20165;-62
2021/11/29 05:59:25;;;;;;;375.03;359.37;;;1.10;99.90;;;;;;4359569;33;20157;-60
2021/11/29 06:01:52;;;;;;;359.97;344.80;;;1.10;99.90;;;;;;4355843;33;20148;-60
2021/11/29 06:04:19;;;;;;;355.10;340.10;;;1.10;99.90;;;;;;4358700;32;20153;-60
2021/11/29 06:06:47;;;;;;;360.43;345.13;;;1.10;99.90;;;;;;4357258;33;20530;-61
2021/11/29 06:09:14;;;;;;;372.80;356.80;;;1.20;99.90;;;;;;4358198;33;20157;-60
2021/11/29 06:11:45;;;;;;;373.07;357.20;;;1.20;99.90;;;;;;4358964;33;20643;-60
2021/11/29 06:14:12;;;;;;;387.87;371.50;;;1.20;99.90;;;;;;4357840;33;20165;-60
2021/11/29 06:16:40;;;;;;;410.97;393.40;;;1.30;99.90;;;;;;4360148;33;20166;-59
2021/11/29 06:19:07;;;;;;;384.70;368.60;;;1.40;99.90;;;;;;4358846;33;20211;-62
2021/11/29 06:21:34;;;;;;;400.00;382.73;;;1.50;99.90;;;;;;4359066;33;20577;-60
2021/11/29 06:24:07;;;;;;;400.50;383.17;;;1.50;99.90;;;;;;4354895;33;20236;-60
2021/11/29 06:26:33;;;;;;;392.37;375.30;;;1.50;99.90;;;;;;4356982;33;20261;-62
2021/11/29 06:29:00;;;;;;;384.30;367.73;;;1.50;99.90;;;;;;4357029;33;20263;-61
2021/11/29 06:31:27;;;;;;;392.70;375.90;;;1.50;99.90;;;;;;4356058;33;20192;-60
2021/11/29 06:33:56;;;;;;;392.33;375.90;;;1.40;99.90;;;;;;4357364;33;20589;-60
2021/11/29 06:36:27;;;;;;;395.47;378.57;;;1.40;99.90;;;;;;4357279;33;20152;-59
2021/11/29 06:38:56;;;;;;;397.83;380.47;;;1.40;99.90;;;;;;4355477;33;20173;-61
2021/11/29 06:41:25;;;;;;;389.90;372.43;;;1.40;99.90;;;;;;4356724;33;20144;-61
2021/11/29 06:43:54;;;;;;;388.93;372.30;;;1.50;99.90;;;;;;4351453;33;20195;-60
2021/11/29 06:46:21;;;;;;;404.07;386.57;;;1.60;99.90;;;;;;4345788;33;20174;-61
2021/11/29 06:49:03;;;;;;;418.00;400.07;;;1.70;99.90;;;;;;4344113;33;20179;-60
2021/11/29 06:51:30;;;;;;;415.87;397.47;;;1.90;99.90;;;;;;4342661;33;20604;-60
2021/11/29 06:53:57;;;;;;;426.87;408.07;;;2.00;99.90;;;;;;4344495;33;20763;-61
2021/11/29 06:56:25;;;;;;;431.10;412.60;;;2.20;99.90;;;;;;4341531;33;20588;-60
2021/11/29 06:58:51;;;;;;;440.00;420.80;;;2.30;99.90;;;;;;4345600;33;20216;-60
2021/11/29 07:01:19;;;;;;;439.47;419.77;;;2.40;99.90;;;;;;4343156;33;20175;-60
2021/11/29 07:03:46;;;;;;;423.10;403.77;;;2.50;99.90;;;;;;4344739;33;20194;-60
2021/11/29 07:06:13;;;;;;;423.80;405.77;;;2.50;99.90;;;;;;4346745;33;20230;-61
2021/11/29 07:08:40;;;;;;;438.17;419.07;;;2.50;99.90;;;;;;4347165;32;20616;-61
2021/11/29 07:11:07;;;;;;;411.13;392.97;;;2.60;99.90;;;;;;4345490;32;20726;-61
2021/11/29 07:13:36;;;;;;;418.37;399.90;;;2.70;99.90;;;;;;4346720;32;20229;-61
2021/11/29 07:16:03;;;;;;;411.13;393.67;;;2.80;99.90;;;;;;4347707;32;20201;-61
2021/11/29 07:18:30;;;;;;;406.10;388.70;;;2.90;99.90;;;;;;4346756;32;20593;-60
2021/11/29 07:20:58;;;;;;;406.53;389.20;;;2.90;99.90;;;;;;4350794;32;20164;-60
2021/11/29 07:23:25;;;;;;;405.83;388.77;;;3.00;99.90;;;;;;4347574;32;20161;-59
2021/11/29 07:25:52;;;;;;;408.20;390.80;;;3.10;99.90;;;;;;4341692;33;20489;-60
2021/11/29 07:28:19;;;;;;;407.30;389.63;;;3.10;99.90;;;;;;4345952;33;20228;-60
2021/11/29 07:30:51;;;;;;;399.43;382.70;;;3.20;99.90;;;;;;4344811;32;20150;-60
2021/11/29 07:33:17;;;;;;;407.00;389.40;;;3.30;99.90;;;;;;4345830;33;20190;-61
2021/11/29 07:35:47;;;;;;;406.10;388.53;;;3.40;99.90;;;;;;4339878;33;20222;-59
2021/11/29 07:38:13;;;;;;;403.13;386.27;;;3.30;99.90;;;;;;4346154;32;20209;-60
2021/11/29 07:40:41;;;;;;;415.67;397.77;;;3.30;99.90;;;;;;4346555;32;20179;-60
2021/11/29 07:43:09;;;;;;;415.17;397.33;;;3.10;99.90;;;;;;4349665;32;20537;-61
2021/11/29 07:45:38;;;;;;;416.70;398.73;;;3.00;99.90;;;;;;4350537;33;20215;-62
2021/11/29 07:48:07;;;;;;;404.93;387.93;;;2.90;99.90;;;;;;4348772;32;20458;-60
2021/11/29 07:50:34;;;;;;;405.63;388.00;;;3.20;99.90;;;;;;4350042;32;20537;-60
2021/11/29 07:53:01;;;;;;;409.27;391.67;;;3.20;99.90;;;;;;4346792;33;20601;-61
2021/11/29 07:55:29;;;;;;;406.33;389.07;;;3.10;99.90;;;;;;4349799;33;20223;-60
2021/11/29 07:57:58;;;;;;;388.60;371.97;;;3.10;99.90;;;;;;4350598;32;20149;-60
2021/11/29 08:00:27;;;;;;;397.27;380.17;;;3.00;99.90;;;;;;4350242;33;20176;-61
2021/11/29 08:02:55;;;;;;;397.30;379.97;;;2.90;99.90;;;;;;4343562;33;20141;-61
2021/11/29 08:05:24;;;;;;;406.00;388.83;;;2.90;99.90;;;;;;4346655;33;20217;-60
2021/11/29 08:07:53;;;;;;;408.67;391.33;;;2.90;99.90;;;;;;4345929;32;20707;-60
2021/11/29 08:10:20;;;;;;;403.70;386.43;;;2.90;99.90;;;;;;4346486;32;21296;-60
2021/11/29 08:12:47;;;;;;;394.07;377.07;;;2.90;99.90;;;;;;4347782;32;20153;-60
2021/11/29 08:15:15;;;;;;;397.00;380.27;;;3.00;99.90;;;;;;4347032;32;20706;-60
2021/11/29 08:17:42;;;;;;;408.63;391.47;;;3.10;99.90;;;;;;4346702;33;20198;-61
2021/11/29 08:20:11;;;;;;;414.90;397.23;;;3.20;99.90;;;;;;4348449;32;20298;-60
2021/11/29 08:22:39;;;;;;;418.70;400.73;;;3.20;99.90;;;;;;4348492;32;20214;-60
2021/11/29 08:25:08;;;;;;;406.23;388.80;;;3.30;99.90;;;;;;4347559;32;20481;-60
2021/11/29 08:27:39;;;;;;;414.90;397.23;;;3.30;99.90;;;;;;4340495;33;21101;-60
2021/11/29 08:30:08;;;;;;;401.57;384.87;;;3.30;99.90;;;;;;4346713;32;20138;-60
2021/11/29 08:32:35;;;;;;;383.40;367.40;;;3.40;99.90;;;;;;4344664;33;20183;-60
2021/11/29 08:35:03;;;;;;;365.37;350.27;;;3.40;99.90;;;;;;4347073;33;20163;-60
2021/11/29 08:37:30;;;;;;;416.43;398.90;;;3.50;99.90;;;;;;4343775;33;20158;-60
2021/11/29 08:39:58;;;;;;;414.80;397.27;;;3.50;99.90;;;;;;4344679;33;20160;-60
2021/11/29 08:42:25;;;;;;;423.43;405.27;;;3.50;99.90;;;;;;4340901;33;20195;-60
2021/11/29 08:44:53;;;;;;;405.27;388.33;;;3.60;99.90;;;;;;4343339;32;20596;-60
2021/11/29 08:47:20;;;;;;;418.97;401.03;;;3.50;99.90;;;;;;4341059;33;20210;-60
2021/11/29 08:49:47;;;;;;;406.37;389.30;;;3.60;99.90;;;;;;4340774;33;20165;-60
2021/11/29 08:52:14;;;;;;;418.00;400.33;;;3.60;99.90;;;;;;4342891;33;20491;-60
2021/11/29 08:54:42;;;;;;;413.90;396.40;;;3.80;99.90;;;;;;4343430;32;20175;-60
2021/11/29 08:57:13;;;;;;;411.23;394.13;;;4.00;99.90;;;;;;4343428;33;20151;-60
2021/11/29 08:59:40;;;;;;;423.83;406.17;;;4.10;99.90;;;;;;4343033;33;20210;-62
2021/11/29 09:02:07;;;;;;;406.50;389.50;;;4.00;99.90;;;;;;4342609;33;20173;-61
2021/11/29 09:04:45;;;;;;;408.03;391.07;;;3.90;99.90;;;;;;4344306;33;20173;-60
2021/11/29 09:07:14;;;;;;;406.63;389.70;;;4.10;99.90;;;;;;4344361;33;20160;-61
2021/11/29 09:09:41;;;;;;;399.13;382.67;;;4.40;99.90;;;;;;4337676;33;20149;-61
2021/11/29 09:12:13;;;;;;;406.63;389.50;;;4.40;99.90;;;;;;4345801;33;20141;-60
2021/11/29 09:14:40;;;;;;;394.63;378.40;;;4.40;99.90;;;;;;4342373;33;20272;-62
2021/11/29 09:17:07;;;;;;;406.90;389.83;;;4.40;99.90;;;;;;4334289;33;20145;-59
2021/11/29 09:19:34;;;;;;;409.27;392.10;;;4.30;99.90;;;;;;4345260;33;20481;-62
2021/11/29 09:22:04;;;;;;;419.43;401.67;;;4.10;99.90;;;;;;4347137;33;20168;-61
2021/11/29 09:24:30;;;;;;;423.50;405.40;;;4.00;99.90;;;;;;4345889;33;20145;-60
2021/11/29 09:27:00;;;;;;;423.60;405.87;;;3.90;99.90;;;;;;4343371;33;20184;-60
2021/11/29 09:29:29;;;;;;;415.80;398.40;;;3.80;99.90;;;;;;4344490;32;20166;-60
2021/11/29 09:31:56;;;;;;;417.53;399.87;;;3.80;99.90;;;;;;4345389;33;20596;-59
2021/11/29 09:34:23;;;;;;;406.27;389.23;;;3.70;99.90;;;;;;4342063;33;20168;-60
2021/11/29 09:36:50;;;;;;;423.10;405.23;;;3.80;99.90;;;;;;4336962;33;20143;-60
2021/11/29 09:39:18;;;;;;;439.30;420.77;;;3.70;99.90;;;;;;4332900;33;20228;-60
2021/11/29 09:41:44;;;;;;;426.77;408.50;;;3.70;99.90;;;;;;4331942;33;20149;-60
2021/11/29 09:44:11;;;;;;;435.10;416.73;;;3.70;99.90;;;;;;4339867;33;20586;-60
2021/11/29 09:46:40;;;;;;;430.43;412.10;;;3.90;99.90;;;;;;4360363;32;20153;-60
2021/11/29 09:49:07;;;;;;;446.13;427.03;;;3.90;99.90;;;;;;4359331;32;20136;-60
2021/11/29 09:51:36;;;;;;;434.07;415.53;;;3.90;99.90;;;;;;4358670;33;20167;-61
2021/11/29 09:54:04;;;;;;;439.80;420.80;;;3.90;99.90;;;;;;4360390;33;20149;-60
2021/11/29 09:56:31;;;;;;;419.23;401.37;;;4.00;99.90;;;;;;4356423;33;20238;-61
2021/11/29 09:58:59;;;;;;;442.87;423.73;;;4.10;99.90;;;;;;4358888;33;20171;-60
2021/11/29 10:01:26;;;;;;;422.33;404.50;;;4.20;99.90;;;;;;4351215;33;20176;-60
2021/11/29 10:03:55;;;;;;;424.50;406.43;;;4.20;99.90;;;;;;4355314;33;20153;-59
2021/11/29 10:06:22;;;;;;;433.07;414.23;;;4.30;99.90;;;;;;4360215;32;20516;-61
2021/11/29 10:08:50;;;;;;;410.10;392.70;;;4.30;99.90;;;;;;4366988;32;20185;-60
2021/11/29 10:11:18;;;;;;;457.57;437.60;;;4.40;99.90;;;;;;4361468;33;20171;-60
2021/11/29 10:13:48;;;;;;;433.93;415.37;;;4.40;99.90;;;;;;4354560;33;20148;-61
2021/11/29 10:16:32;;;;;;;432.00;413.63;;;4.60;99.90;;;;;;4361742;33;20181;-60
2021/11/29 10:19:01;;;;;;;438.70;419.87;;;4.60;99.90;;;;;;4357711;33;21433;-59
2021/11/29 10:21:28;;;;;;;432.47;413.60;;;4.50;99.90;;;;;;4355651;33;20554;-60
2021/11/29 10:23:58;;;;;;;440.33;420.97;;;4.60;99.90;;;;;;4358769;32;20168;-60
2021/11/29 10:26:27;;;;;;;435.93;416.80;;;4.70;99.90;;;;;;4358294;33;20310;-60
2021/11/29 10:28:56;;;;;;;420.20;402.27;;;4.80;99.90;;;;;;4358977;33;20173;-59
2021/11/29 10:31:26;;;;;;;431.33;413.03;;;4.90;99.90;;;;;;4359763;32;20164;-60
2021/11/29 10:34:00;;;;;;;419.27;401.37;;;4.90;99.90;;;;;;4362686;32;20529;-59
2021/11/29 10:36:31;;;;;;;423.87;405.23;;;4.80;99.90;;;;;;4360341;32;20202;-62
2021/11/29 10:39:02;;;;;;;423.17;405.07;;;4.80;99.90;;;;;;4364740;32;20163;-59
2021/11/29 10:41:32;;;;;;;413.63;396.03;;;4.90;99.90;;;;;;4363874;32;20303;-59
2021/11/29 10:44:00;;;;;;;405.33;388.03;;;4.90;99.90;;;;;;4370256;32;20629;-59
2021/11/29 10:46:29;;;;;;;409.13;391.80;;;5.00;99.90;;;;;;4362339;32;20179;-60
2021/11/29 10:48:59;;;;;;;403.30;386.17;;;5.10;99.90;;;;;;4363500;32;20140;-61
2021/11/29 10:51:28;;;;;;;407.60;390.43;;;5.10;99.90;;;;;;4361836;33;20210;-61
2021/11/29 10:54:00;;;;;;;405.23;388.10;;;5.10;99.90;;;;;;4362088;32;20137;-60
2021/11/29 10:56:30;;;;;;;410.97;393.60;;;5.30;99.90;;;;;;4361883;33;20148;-60
2021/11/29 10:58:59;;;;;;;400.20;382.67;;;5.20;99.90;;;;;;4362416;32;20141;-60
2021/11/29 11:01:36;;;;;;;407.30;389.83;;;5.20;99.90;;;;;;4363806;32;20159;-60
2021/11/29 11:04:03;;;;;;;391.20;374.77;;;5.20;99.90;;;;;;4362189;32;20145;-60
2021/11/29 11:06:33;;;;;;;379.83;364.00;;;5.30;99.90;;;;;;4363548;32;20167;-61
2021/11/29 11:09:00;;;;;;;385.20;369.23;;;5.40;99.90;;;;;;4362423;32;20145;-61
2021/11/29 11:11:30;;;;;;;374.83;359.20;;;5.50;99.90;;;;;;4361795;32;20148;-60
2021/11/29 11:13:58;;;;;;;401.93;384.97;;;5.50;99.90;;;;;;4361918;32;20262;-60
2021/11/29 11:16:40;;;;;;;390.60;374.30;;;5.40;99.90;;;;;;4361411;32;20557;-61
2021/11/29 11:19:09;;;;;;;377.70;362.03;;;5.40;99.90;;;;;;4360796;32;20534;-61
2021/11/29 11:21:38;;;;;;;385.27;369.10;;;5.40;99.90;;;;;;4356329;33;20460;-61
2021/11/29 11:24:26;;;;;;;404.57;387.37;;;5.50;99.90;;;;;;4361825;33;20168;-61
2021/11/29 11:26:56;;;;;;;389.40;373.27;;;5.50;99.90;;;;;;4350247;32;20515;-60
2021/11/29 11:29:38;;;;;;;401.27;384.33;;;5.50;99.90;;;;;;4349177;33;20160;-60
2021/11/29 11:32:14;;;;;;;397.87;381.27;;;5.50;99.90;;;;;;4357067;32;20165;-61
2021/11/29 11:34:43;;;;;;;386.57;370.30;;;5.50;99.90;;;;;;4357197;33;20232;-62
2021/11/29 11:37:17;;;;;;;383.33;367.17;;;5.60;99.90;;;;;;4362369;32;20188;-61
2021/11/29 11:39:45;;;;;;;381.57;365.53;;;5.50;99.90;;;;;;4361457;32;20228;-60
2021/11/29 11:42:13;;;;;;;402.10;384.93;;;5.60;99.90;;;;;;4360828;32;20172;-62
2021/11/29 11:44:40;;;;;;;399.53;382.30;;;5.70;99.90;;;;;;4356391;32;20149;-61
2021/11/29 11:47:09;;;;;;;374.63;358.93;;;5.70;99.90;;;;;;4346662;33;20521;-62
2021/11/29 11:49:38;;;;;;;395.10;378.13;;;5.80;99.90;;;;;;4346768;33;20340;-60
2021/11/29 11:52:07;;;;;;;403.00;385.60;;;5.70;99.90;;;;;;4346008;32;20474;-60
2021/11/29 11:54:36;;;;;;;404.87;387.67;;;5.70;99.90;;;;;;4345310;33;20220;-60
2021/11/29 11:57:04;;;;;;;393.50;376.93;;;5.80;99.90;;;;;;4345295;32;20484;-61
2021/11/29 11:59:43;;;;;;;407.33;389.40;;;5.80;99.90;;;;;;4345357;33;20595;-60
2021/11/29 12:02:14;;;;;;;383.37;367.50;;;5.80;99.90;;;;;;4344886;33;20161;-60
2021/11/29 12:04:40;;;;;;;401.63;384.77;;;5.90;99.90;;;;;;4346187;33;20175;-60
2021/11/29 12:07:09;;;;;;;380.83;365.07;;;5.80;99.90;;;;;;4348258;32;20152;-61
2021/11/29 12:09:42;;;;;;;363.60;348.13;;;5.90;99.90;;;;;;4347754;33;20205;-60
2021/11/29 12:12:09;;;;;;;370.07;354.60;;;6.00;99.90;;;;;;4347481;33;20165;-61
2021/11/29 12:14:36;;;;;;;345.00;330.70;;;6.10;99.90;;;;;;4348186;33;20141;-61
2021/11/29 12:17:18;;;;;;;333.07;319.27;;;6.10;99.90;;;;;;4346676;33;20187;-61
2021/11/29 12:19:47;;;;;;;341.37;326.93;;;6.40;99.90;;;;;;4345485;33;20145;-61
2021/11/29 12:22:36;;;;;;;358.13;343.03;;;6.40;99.90;;;;;;4343729;33;20175;-59
2021/11/29 12:25:21;;;;;;;366.23;350.97;;;6.50;99.90;;;;;;4346632;33;20158;-60